createdAt,value
2023-02-05T00:01:35.924Z,3.95
2023-02-05T00:04:03.309Z,3.15
2023-02-05T00:06:30.324Z,4.38
2023-02-05T00:08:58.541Z,3.63
2023-02-05T00:11:26.172Z,4.57
2023-02-05T00:13:53.174Z,5.20
2023-02-05T00:16:23.167Z,5.22
2023-02-05T00:18:50.762Z,6.07
2023-02-05T00:21:21.743Z,5.18
2023-02-05T00:23:51.135Z,5.20
2023-02-05T00:26:18.690Z,4.30
2023-02-05T00:28:47.093Z,4.68
2023-02-05T00:31:20.707Z,5.20
2023-02-05T00:33:49.327Z,4.95
2023-02-05T00:36:16.719Z,6.93
2023-02-05T00:38:45.069Z,5.57
2023-02-05T00:41:13.299Z,5.68
2023-02-05T00:43:41.191Z,5.35
2023-02-05T00:46:10.578Z,5.68
2023-02-05T00:48:38.294Z,5.65
2023-02-05T00:51:05.867Z,6.97
2023-02-05T00:53:33.327Z,4.70
2023-02-05T00:56:00.575Z,5.75
2023-02-05T00:58:28.054Z,4.45
2023-02-05T01:00:57.197Z,4.97
2023-02-05T01:03:24.104Z,4.25
2023-02-05T01:05:51.136Z,5.00
2023-02-05T01:08:18.391Z,7.20
2023-02-05T01:10:46.876Z,6.28
2023-02-05T01:13:17.674Z,6.53
2023-02-05T01:15:45.462Z,7.47
2023-02-05T01:18:12.576Z,7.15
2023-02-05T01:20:41.896Z,7.90
2023-02-05T01:23:09.181Z,8.60
2023-02-05T01:25:37.044Z,10.80
2023-02-05T01:28:04.552Z,12.65
2023-02-05T01:30:31.760Z,10.93
2023-02-05T01:32:58.958Z,14.38
2023-02-05T01:35:26.012Z,13.00
2023-02-05T01:37:52.962Z,18.20
2023-02-05T01:40:22.490Z,12.50
2023-02-05T01:42:49.611Z,11.25
2023-02-05T01:45:55.832Z,9.75
2023-02-05T01:48:27.866Z,10.07
2023-02-05T01:50:59.395Z,8.90
2023-02-05T01:53:31.693Z,6.93
2023-02-05T01:56:03.508Z,5.57
2023-02-05T01:58:35.097Z,8.45
2023-02-05T02:01:02.366Z,7.45
2023-02-05T02:03:31.954Z,7.97
2023-02-05T02:05:59.760Z,9.10
2023-02-05T02:08:27.922Z,4.95
2023-02-05T02:10:58.254Z,4.85
2023-02-05T02:13:28.252Z,6.13
2023-02-05T02:15:56.957Z,7.07
2023-02-05T02:18:26.370Z,5.07
2023-02-05T02:21:27.191Z,4.30
2023-02-05T02:24:11.373Z,3.50
2023-02-05T02:27:13.016Z,5.63
2023-02-05T02:29:47.077Z,2.92
2023-02-05T02:32:45.218Z,4.32
2023-02-05T02:35:38.940Z,4.07
2023-02-05T02:38:18.172Z,4.28
2023-02-05T02:40:55.157Z,4.28
2023-02-05T02:43:32.212Z,4.32
2023-02-05T02:46:10.326Z,4.35
2023-02-05T02:48:39.892Z,6.38
2023-02-05T02:51:09.392Z,4.13
2023-02-05T02:53:42.698Z,3.88
2023-02-05T02:56:13.688Z,3.78
2023-02-05T02:58:50.458Z,3.35
2023-02-05T03:01:21.497Z,3.33
2023-02-05T03:03:56.741Z,6.22
2023-02-05T03:06:24.444Z,4.13
2023-02-05T03:09:23.831Z,5.20
2023-02-05T03:11:50.981Z,4.05
2023-02-05T03:14:18.519Z,5.28
2023-02-05T03:16:45.997Z,2.03
2023-02-05T03:19:13.527Z,3.67
2023-02-05T03:21:48.354Z,3.75
2023-02-05T03:24:15.576Z,3.95
2023-02-05T03:26:43.239Z,4.00
2023-02-05T03:29:25.306Z,2.53
2023-02-05T03:32:22.406Z,3.55
2023-02-05T03:34:58.725Z,3.80
2023-02-05T03:37:49.232Z,3.58
2023-02-05T03:40:22.256Z,3.60
2023-02-05T03:42:53.244Z,4.05
2023-02-05T03:45:53.142Z,2.58
2023-02-05T03:48:48.646Z,3.78
2023-02-05T03:51:42.109Z,4.20
2023-02-05T03:54:32.739Z,4.32
2023-02-05T03:57:19.146Z,5.45
2023-02-05T03:59:48.913Z,8.43
2023-02-05T04:02:18.330Z,5.85
2023-02-05T04:04:47.006Z,4.30
2023-02-05T04:07:15.364Z,2.88
2023-02-05T04:09:42.477Z,2.80
2023-02-05T04:12:10.542Z,3.15
2023-02-05T04:14:39.122Z,3.20
2023-02-05T04:17:07.709Z,3.95
2023-02-05T04:19:35.272Z,3.60
2023-02-05T04:22:03.462Z,3.38
2023-02-05T04:24:34.068Z,3.92
2023-02-05T04:27:01.419Z,4.60
2023-02-05T04:29:28.989Z,2.85
2023-02-05T04:31:58.073Z,3.53
2023-02-05T04:34:25.160Z,3.42
2023-02-05T04:36:52.821Z,3.33
2023-02-05T04:39:19.877Z,3.15
2023-02-05T04:41:47.160Z,6.13
2023-02-05T04:44:14.174Z,3.78
2023-02-05T04:46:41.203Z,4.13
2023-02-05T04:49:08.283Z,3.28
2023-02-05T04:51:35.434Z,5.13
2023-02-05T04:54:02.671Z,5.95
2023-02-05T04:56:29.644Z,3.47
2023-02-05T04:58:56.787Z,3.58
2023-02-05T05:01:24.280Z,5.00
2023-02-05T05:03:51.696Z,3.83
2023-02-05T05:06:19.681Z,5.32
2023-02-05T05:08:46.704Z,3.45
2023-02-05T05:11:16.730Z,5.13
2023-02-05T05:13:44.399Z,4.20
2023-02-05T05:16:12.552Z,5.35
2023-02-05T05:18:42.637Z,2.92
2023-02-05T05:21:10.095Z,3.88
2023-02-05T05:23:38.146Z,3.45
2023-02-05T05:26:07.472Z,3.85
2023-02-05T05:28:35.399Z,5.53
2023-02-05T05:31:15.600Z,3.92
2023-02-05T05:33:42.842Z,3.30
2023-02-05T05:36:09.893Z,2.13
2023-02-05T05:38:37.232Z,4.55
2023-02-05T05:41:23.877Z,4.22
2023-02-05T05:46:25.574Z,4.70
2023-02-05T05:48:58.244Z,3.28
2023-02-05T05:51:27.612Z,2.95
2023-02-05T05:53:55.494Z,3.03
2023-02-05T05:56:23.116Z,3.42
2023-02-05T05:58:50.091Z,5.75
2023-02-05T06:01:20.392Z,3.88
2023-02-05T06:03:47.358Z,5.82
2023-02-05T06:06:14.342Z,2.95
2023-02-05T06:08:41.380Z,3.92
2023-02-05T06:11:08.418Z,3.78
2023-02-05T06:13:35.381Z,2.50
2023-02-05T06:16:02.996Z,2.25
2023-02-05T06:18:30.443Z,3.45
2023-02-05T06:20:57.720Z,2.58
2023-02-05T06:23:24.619Z,3.22
2023-02-05T06:25:51.683Z,4.13
2023-02-05T06:28:19.529Z,3.90
2023-02-05T06:30:46.870Z,3.17
2023-02-05T06:33:13.923Z,2.95
2023-02-05T06:35:41.930Z,3.58
2023-02-05T06:38:09.502Z,3.00
2023-02-05T06:40:36.631Z,4.63
2023-02-05T06:43:04.125Z,3.22
2023-02-05T06:45:31.328Z,2.53
2023-02-05T06:47:59.153Z,2.88
2023-02-05T06:50:26.622Z,2.92
2023-02-05T06:52:53.603Z,2.78
2023-02-05T06:55:21.055Z,5.32
2023-02-05T06:57:48.222Z,3.40
2023-02-05T07:00:16.035Z,4.05
2023-02-05T07:02:43.207Z,4.63
2023-02-05T07:05:10.544Z,2.97
2023-02-05T07:07:37.574Z,3.20
2023-02-05T07:10:04.927Z,4.13
2023-02-05T07:12:31.851Z,3.45
2023-02-05T07:14:58.780Z,4.32
2023-02-05T07:17:26.146Z,2.85
2023-02-05T07:19:53.340Z,2.88
2023-02-05T07:22:20.397Z,4.15
2023-02-05T07:24:47.366Z,4.65
2023-02-05T07:27:14.513Z,3.33
2023-02-05T07:29:41.766Z,4.65
2023-02-05T07:32:08.815Z,2.78
2023-02-05T07:34:36.017Z,3.20
2023-02-05T07:37:02.937Z,4.30
2023-02-05T07:39:30.022Z,3.72
2023-02-05T07:41:56.931Z,4.45
2023-02-05T07:44:35.728Z,4.07
2023-02-05T07:47:02.785Z,5.00
2023-02-05T07:49:29.908Z,4.55
2023-02-05T07:51:57.032Z,4.65
2023-02-05T07:54:24.749Z,3.05
2023-02-05T07:56:51.952Z,4.68
2023-02-05T07:59:19.061Z,5.72
2023-02-05T08:01:46.297Z,6.82
2023-02-05T08:04:13.386Z,5.43
2023-02-05T08:06:40.560Z,5.55
2023-02-05T08:09:07.503Z,8.55
2023-02-05T08:11:34.467Z,7.38
2023-02-05T08:14:02.116Z,4.55
2023-02-05T08:16:29.147Z,4.18
2023-02-05T08:18:56.175Z,4.70
2023-02-05T08:21:23.217Z,4.07
2023-02-05T08:23:50.422Z,4.93
2023-02-05T08:26:18.531Z,2.72
2023-02-05T08:28:46.199Z,3.45
2023-02-05T08:31:17.475Z,7.75
2023-02-05T08:33:45.976Z,6.68
2023-02-05T08:36:13.306Z,4.32
2023-02-05T08:38:41.315Z,2.88
2023-02-05T08:41:12.794Z,2.40
2023-02-05T08:43:41.771Z,2.10
2023-02-05T08:46:10.158Z,2.17
2023-02-05T08:48:37.373Z,4.68
2023-02-05T08:51:05.080Z,3.95
2023-02-05T08:53:32.808Z,4.28
2023-02-05T08:56:01.824Z,2.90
2023-02-05T08:58:30.711Z,2.63
2023-02-05T09:01:07.461Z,2.90
2023-02-05T09:06:07.994Z,1.45
2023-02-05T09:08:35.103Z,3.50
2023-02-05T09:11:02.800Z,1.73
2023-02-05T09:13:30.058Z,3.83
2023-02-05T09:15:57.180Z,3.78
2023-02-05T09:18:25.609Z,4.00
2023-02-05T09:20:54.590Z,5.25
2023-02-05T09:23:21.853Z,3.67
2023-02-05T09:25:49.235Z,3.60
2023-02-05T09:28:16.604Z,2.65
2023-02-05T09:30:46.087Z,4.88
2023-02-05T09:33:14.470Z,2.95
2023-02-05T09:35:42.281Z,3.72
2023-02-05T09:38:12.735Z,3.97
2023-02-05T09:40:59.609Z,2.30
2023-02-05T09:43:45.118Z,3.60
2023-02-05T09:46:51.469Z,2.80
2023-02-05T09:49:30.041Z,2.60
2023-02-05T09:52:37.748Z,5.90
2023-02-05T09:55:16.950Z,4.57
2023-02-05T09:57:47.369Z,4.10
2023-02-05T10:00:39.455Z,3.22
2023-02-05T10:03:32.236Z,3.65
2023-02-05T10:06:15.338Z,3.83
2023-02-05T10:08:48.182Z,4.10
2023-02-05T10:11:41.687Z,4.68
2023-02-05T10:14:35.673Z,5.18
2023-02-05T10:17:22.316Z,6.80
2023-02-05T10:20:03.721Z,4.60
2023-02-05T10:22:48.283Z,4.38
2023-02-05T10:25:45.702Z,4.78
2023-02-05T10:28:33.711Z,3.78
2023-02-05T10:31:38.489Z,4.65
2023-02-05T10:34:35.189Z,4.78
2023-02-05T10:39:34.748Z,4.20
2023-02-05T10:42:18.034Z,5.65
2023-02-05T10:44:49.090Z,5.38
2023-02-05T10:47:16.084Z,4.38
2023-02-05T10:50:00.621Z,3.08
2023-02-05T10:52:27.908Z,3.72
2023-02-05T10:54:55.111Z,5.15
2023-02-05T10:57:23.609Z,3.67
2023-02-05T11:00:02.275Z,5.25
2023-02-05T11:02:38.192Z,8.05
2023-02-05T11:05:23.505Z,8.82
2023-02-05T11:07:53.473Z,5.88
2023-02-05T11:10:38.864Z,5.10
2023-02-05T11:13:19.345Z,6.15
2023-02-05T11:15:58.835Z,4.80
2023-02-05T11:18:46.258Z,6.45
2023-02-05T11:21:13.723Z,3.80
2023-02-05T11:23:53.717Z,3.17
2023-02-05T11:26:23.436Z,3.78
2023-02-05T11:28:51.675Z,5.22
2023-02-05T11:31:33.575Z,4.07
2023-02-05T11:34:17.027Z,5.28
2023-02-05T11:36:51.136Z,2.53
2023-02-05T11:39:39.584Z,2.85
2023-02-05T11:42:09.874Z,3.92
2023-02-05T11:44:47.328Z,2.75
2023-02-05T11:47:46.717Z,4.32
2023-02-05T11:50:28.701Z,3.08
2023-02-05T11:53:06.225Z,5.70
2023-02-05T11:55:36.248Z,5.20
2023-02-05T11:58:25.109Z,3.20
2023-02-05T12:01:29.233Z,1.67
2023-02-05T12:04:02.631Z,2.97
2023-02-05T12:07:01.287Z,2.85
2023-02-05T12:09:28.350Z,2.63
2023-02-05T12:12:06.809Z,3.38
2023-02-05T12:15:13.836Z,4.15
2023-02-05T12:17:54.182Z,3.80
2023-02-05T12:20:34.682Z,4.05
2023-02-05T12:23:20.951Z,2.97
2023-02-05T12:26:07.108Z,4.30
2023-02-05T12:28:37.017Z,2.08
2023-02-05T12:31:20.006Z,1.98
2023-02-05T12:34:15.088Z,5.35
2023-02-05T12:36:57.293Z,3.88
2023-02-05T12:39:56.953Z,2.72
2023-02-05T12:42:30.694Z,4.20
2023-02-05T12:45:25.855Z,1.65
2023-02-05T12:48:42.782Z,1.42
2023-02-05T12:51:27.534Z,3.07
2023-02-05T12:54:44.155Z,2.83
2023-02-05T12:57:19.455Z,2.38
2023-02-05T12:59:53.996Z,2.22
2023-02-05T13:02:46.724Z,2.20
2023-02-05T13:05:52.531Z,3.15
2023-02-05T13:08:36.062Z,3.25
2023-02-05T13:11:32.157Z,2.38
2023-02-05T13:14:18.006Z,2.73
2023-02-05T13:16:51.129Z,2.45
2023-02-05T13:19:26.933Z,1.77
2023-02-05T13:22:15.991Z,3.03
2023-02-05T13:25:24.665Z,2.00
2023-02-05T13:28:18.864Z,2.67
2023-02-05T13:30:50.702Z,4.85
2023-02-05T13:33:18.235Z,2.53
2023-02-05T13:36:12.614Z,1.33
2023-02-05T13:39:06.942Z,2.03
2023-02-05T13:41:43.153Z,1.63
2023-02-05T13:44:44.983Z,1.60
2023-02-05T13:47:30.707Z,2.22
2023-02-05T13:50:12.712Z,2.67
2023-02-05T13:53:17.283Z,1.45
2023-02-05T13:56:19.389Z,2.13
2023-02-05T13:58:52.009Z,2.08
2023-02-05T14:01:40.961Z,2.40
2023-02-05T14:04:34.878Z,4.50
2023-02-05T14:07:08.730Z,2.70
2023-02-05T14:09:42.025Z,2.25
2023-02-05T14:12:12.399Z,2.67
2023-02-05T14:14:41.995Z,2.65
2023-02-05T14:17:28.813Z,3.13
2023-02-05T14:19:58.997Z,2.20
2023-02-05T14:22:43.775Z,2.45
2023-02-05T14:25:36.430Z,3.38
2023-02-05T14:28:24.482Z,2.03
2023-02-05T14:30:59.459Z,3.72
2023-02-05T14:33:39.387Z,2.93
2023-02-05T14:36:22.933Z,2.13
2023-02-05T14:39:03.360Z,2.65
2023-02-05T14:41:40.722Z,2.53
2023-02-05T14:44:18.113Z,2.70
2023-02-05T14:47:02.477Z,4.07
2023-02-05T14:49:38.967Z,2.70
2023-02-05T14:52:27.117Z,3.05
2023-02-05T14:55:22.039Z,2.53
2023-02-05T14:58:04.948Z,2.50
2023-02-05T15:00:38.415Z,1.65
2023-02-05T15:03:05.729Z,2.58
2023-02-05T15:05:44.936Z,2.88
2023-02-05T15:08:24.747Z,3.97
2023-02-05T15:10:58.813Z,2.03
2023-02-05T15:13:26.403Z,2.72
2023-02-05T15:16:21.494Z,3.85
2023-02-05T15:18:57.796Z,2.35
2023-02-05T15:21:27.654Z,4.03
2023-02-05T15:24:12.410Z,3.67
2023-02-05T15:26:39.335Z,3.33
2023-02-05T15:29:13.584Z,2.25
2023-02-05T15:31:47.211Z,2.38
2023-02-05T15:34:36.180Z,4.28
2023-02-05T15:37:08.941Z,3.20
2023-02-05T15:39:52.947Z,4.32
2023-02-05T15:42:37.662Z,2.60
2023-02-05T15:45:45.279Z,2.20
2023-02-05T15:48:17.199Z,2.35
2023-02-05T15:51:01.639Z,1.60
2023-02-05T15:53:50.147Z,3.95
2023-02-05T15:56:20.163Z,3.72
2023-02-05T15:59:17.281Z,2.28
2023-02-05T16:01:48.201Z,2.67
2023-02-05T16:04:29.707Z,4.18
2023-02-05T16:06:57.939Z,2.45
2023-02-05T16:09:27.473Z,2.05
2023-02-05T16:11:55.833Z,3.05
2023-02-05T16:14:28.713Z,1.73
2023-02-05T16:17:05.695Z,2.55
2023-02-05T16:19:59.148Z,2.97
2023-02-05T16:22:45.303Z,2.33
2023-02-05T16:25:24.650Z,1.45
2023-02-05T16:27:53.765Z,2.95
2023-02-05T16:30:31.730Z,2.17
2023-02-05T16:33:01.459Z,3.17
2023-02-05T16:35:44.635Z,2.88
2023-02-05T16:38:23.437Z,3.45
2023-02-05T16:40:59.040Z,2.25
2023-02-05T16:43:29.378Z,2.67
2023-02-05T16:46:08.878Z,2.00
2023-02-05T16:48:39.168Z,2.90
2023-02-05T16:51:06.539Z,2.15
2023-02-05T16:53:48.871Z,3.20
2023-02-05T16:56:32.814Z,2.50
2023-02-05T16:59:01.761Z,4.00
2023-02-05T17:01:43.115Z,3.25
2023-02-05T17:04:29.747Z,3.13
2023-02-05T17:06:59.056Z,4.00
2023-02-05T17:09:35.808Z,2.47
2023-02-05T17:12:21.806Z,4.78
2023-02-05T17:14:55.020Z,7.88
2023-02-05T17:17:22.309Z,7.68
2023-02-05T17:20:19.483Z,7.70
2023-02-05T17:23:05.364Z,7.55
2023-02-05T17:25:38.708Z,7.45
2023-02-05T17:28:10.633Z,6.72
2023-02-05T17:30:38.130Z,6.20
2023-02-05T17:33:17.325Z,7.35
2023-02-05T17:35:44.675Z,7.80
2023-02-05T17:38:12.206Z,6.03
2023-02-05T17:40:39.415Z,6.50
2023-02-05T17:43:06.475Z,5.57
2023-02-05T17:45:39.615Z,5.88
2023-02-05T17:48:08.142Z,3.58
2023-02-05T17:50:36.693Z,4.32
2023-02-05T17:53:04.574Z,3.47
2023-02-05T17:55:31.626Z,3.10
2023-02-05T17:57:59.226Z,3.60
2023-02-05T18:00:28.375Z,8.95
2023-02-05T18:02:55.472Z,9.43
2023-02-05T18:05:22.916Z,4.75
2023-02-05T18:07:51.878Z,5.15
2023-02-05T18:10:23.304Z,5.65
2023-02-05T18:12:50.977Z,6.05
2023-02-05T18:15:18.343Z,4.90
2023-02-05T18:17:46.000Z,5.97
2023-02-05T18:20:14.359Z,5.68
2023-02-05T18:22:41.568Z,7.32
2023-02-05T18:25:09.926Z,7.22
2023-02-05T18:27:37.098Z,9.50
2023-02-05T18:30:05.180Z,7.78
2023-02-05T18:32:32.322Z,9.93
2023-02-05T18:34:59.268Z,10.68
2023-02-05T18:37:26.676Z,8.93
2023-02-05T18:39:54.753Z,9.73
2023-02-05T18:42:23.305Z,7.13
2023-02-05T18:44:50.391Z,7.50
2023-02-05T18:47:17.365Z,6.80
2023-02-05T18:49:44.374Z,6.60
2023-02-05T18:52:13.920Z,5.97
2023-02-05T18:54:41.208Z,7.50
2023-02-05T18:57:08.356Z,7.90
2023-02-05T18:59:36.889Z,6.70
2023-02-05T19:02:04.047Z,5.30
2023-02-05T19:04:33.131Z,5.10
2023-02-05T19:07:00.227Z,7.10
2023-02-05T19:09:28.437Z,6.55
2023-02-05T19:11:55.992Z,6.13
2023-02-05T19:14:25.070Z,6.75
2023-02-05T19:16:53.033Z,5.15
2023-02-05T19:19:22.924Z,6.75
2023-02-05T19:21:55.043Z,5.35
2023-02-05T19:24:22.340Z,5.45
2023-02-05T19:26:50.934Z,4.18
2023-02-05T19:29:20.096Z,3.72
2023-02-05T19:31:47.487Z,3.95
2023-02-05T19:34:15.864Z,4.30
2023-02-05T19:36:43.629Z,5.10
2023-02-05T19:39:13.204Z,7.05
2023-02-05T19:41:41.894Z,6.97
2023-02-05T19:44:09.313Z,7.57
2023-02-05T19:46:44.191Z,4.80
2023-02-05T19:49:16.899Z,7.63
2023-02-05T19:51:55.321Z,6.20
2023-02-05T19:54:23.343Z,5.53
2023-02-05T19:56:50.873Z,5.15
2023-02-05T19:59:18.247Z,5.40
2023-02-05T20:01:46.084Z,5.72
2023-02-05T20:04:17.501Z,6.55
2023-02-05T20:06:46.539Z,7.93
2023-02-05T20:09:15.540Z,9.10
2023-02-05T20:11:45.604Z,9.80
2023-02-05T20:14:13.156Z,11.60
2023-02-05T20:16:40.509Z,8.88
2023-02-05T20:19:10.137Z,7.72
2023-02-05T20:21:38.027Z,7.88
2023-02-05T20:24:05.583Z,7.93
2023-02-05T20:26:34.148Z,7.78
2023-02-05T20:29:19.614Z,8.85
2023-02-05T20:31:50.182Z,9.23
2023-02-05T20:34:21.391Z,8.52
2023-02-05T20:36:50.779Z,10.02
2023-02-05T20:39:19.739Z,7.13
2023-02-05T20:41:49.411Z,8.55
2023-02-05T20:44:17.823Z,7.78
2023-02-05T20:46:46.301Z,8.95
2023-02-05T20:49:13.817Z,9.32
2023-02-05T20:51:41.054Z,9.05
2023-02-05T20:54:08.338Z,8.82
2023-02-05T20:56:35.978Z,9.80
2023-02-05T20:59:05.594Z,7.90
2023-02-05T21:01:34.118Z,8.20
2023-02-05T21:04:02.902Z,7.65
2023-02-05T21:06:34.663Z,9.23
2023-02-05T21:09:02.077Z,8.48
2023-02-05T21:11:30.526Z,6.50
2023-02-05T21:13:58.849Z,5.72
2023-02-05T21:16:27.347Z,5.57
2023-02-05T21:18:55.463Z,4.80
2023-02-05T21:21:28.602Z,6.47
2023-02-05T21:24:04.419Z,7.15
2023-02-05T21:26:38.123Z,7.38
2023-02-05T21:29:08.285Z,4.65
2023-02-05T21:31:39.505Z,5.20
2023-02-05T21:34:09.477Z,6.75
2023-02-05T21:36:36.645Z,7.82
2023-02-05T21:39:03.913Z,6.55
2023-02-05T21:41:31.736Z,6.32
2023-02-05T21:44:00.552Z,5.10
2023-02-05T21:46:29.618Z,8.02
2023-02-05T21:48:59.006Z,5.43
2023-02-05T21:51:29.074Z,5.63
2023-02-05T21:53:59.081Z,6.40
2023-02-05T21:56:31.974Z,6.35
2023-02-05T21:58:58.985Z,5.93
2023-02-05T22:01:28.569Z,6.38
2023-02-05T22:04:01.243Z,7.78
2023-02-05T22:06:31.378Z,6.65
2023-02-05T22:08:59.636Z,6.70
2023-02-05T22:11:27.816Z,4.93
2023-02-05T22:13:56.511Z,6.50
2023-02-05T22:16:29.008Z,6.78
2023-02-05T22:18:56.918Z,5.80
2023-02-05T22:21:32.764Z,8.38
2023-02-05T22:24:01.823Z,6.75
2023-02-05T22:26:35.476Z,7.68
2023-02-05T22:29:06.270Z,6.63
2023-02-05T22:31:33.739Z,6.13
2023-02-05T22:34:00.774Z,6.95
2023-02-05T22:36:29.900Z,7.38
2023-02-05T22:38:57.437Z,7.60
2023-02-05T22:41:33.256Z,7.40
2023-02-05T22:44:01.801Z,5.97
2023-02-05T22:46:31.403Z,9.07
2023-02-05T22:49:00.724Z,8.82
2023-02-05T22:51:35.607Z,7.43
2023-02-05T22:54:02.842Z,7.95
2023-02-05T22:56:30.008Z,6.38
2023-02-05T22:58:57.735Z,7.00
2023-02-05T23:01:26.284Z,8.35
2023-02-05T23:03:53.392Z,8.93
2023-02-05T23:06:26.408Z,7.53
2023-02-05T23:08:56.160Z,10.10
2023-02-05T23:11:24.274Z,7.85
2023-02-05T23:13:54.608Z,10.57
2023-02-05T23:16:48.205Z,8.35
2023-02-05T23:19:20.378Z,7.07
2023-02-05T23:21:48.249Z,9.50
2023-02-05T23:24:16.321Z,6.90
2023-02-05T23:26:45.891Z,7.90
2023-02-05T23:29:14.936Z,8.00
2023-02-05T23:31:42.023Z,8.00
2023-02-05T23:34:09.644Z,8.63
2023-02-05T23:36:36.664Z,8.13
2023-02-05T23:39:03.969Z,8.73
2023-02-05T23:41:37.050Z,7.93
2023-02-05T23:44:15.458Z,7.38
2023-02-05T23:46:43.724Z,8.43
2023-02-05T23:49:11.548Z,9.10
2023-02-05T23:51:39.190Z,8.40
2023-02-05T23:54:08.228Z,9.55
2023-02-05T23:56:35.204Z,10.25
2023-02-05T23:59:02.457Z,9.20
